Station Historical Data
Daily Summary for January 12, 2018 Units:  Metric    English   Both
« Previous Day
Next Day »
Daily Weekly Monthly Yearly Custom
  High: Low: Average:
Temperature: 16 °C 12 °C 14.3 °C
Dew Point: 15.8 °C 11.2 °C 13.9 °C
Humidity: 99 % 95 % 98 %
Wind Speed: 11.3 km/h 0 km/h 1.9 km/h
Wind Gust: 20.9 km/h - -
Wind:- - East
Pressure: 1020.5 hPa 998.5 hPa -
Precipitation: 11.94 mm    
Historical Graphs
 
 
Tabular Data for January 12, 2018
Time Temperature Dew Point Pressure Wind Wind Speed Wind Gust Humidity Rainfall Rate (Hourly)
00:00 13.2 °C 12.4 °C 1020.5 hPa Calm   4.8 km/h 95 % 0 mm
00:05 13.2 °C 12.4 °C 1020.5 hPa Calm   3.2 km/h 95 % 0 mm
00:10 13.3 °C 12.5 °C 1020.2 hPa Calm   4.8 km/h 95 % 0 mm
00:21 13.3 °C 12.5 °C 1020.2 hPa Calm   8 km/h 95 % 0 mm
00:34 13.3 °C 12.5 °C 1019.9 hPa Calm   8 km/h 95 % 0 mm
00:39 13.3 °C 12.5 °C 1019.9 hPa Calm   8 km/h 95 % 0 mm
00:56 13.2 °C 12.4 °C 1019.5 hPa Calm   4.8 km/h 95 % 0 mm
01:05 13.1 °C 12.3 °C 1019.2 hPa ESE 1.6 km/h 4.8 km/h 95 % 0 mm
01:10 12.9 °C 12.2 °C 1018.8 hPa ESE 3.2 km/h 11.3 km/h 95 % 0 mm
01:28 12.3 °C 11.6 °C 1018.8 hPa East 4.8 km/h 11.3 km/h 95 % 0 mm
01:40 12.1 °C 11.3 °C 1018.5 hPa Calm   11.3 km/h 95 % 0 mm
01:53 12 °C 11.2 °C 1018.5 hPa Calm   8 km/h 95 % 0 mm
02:07 12.1 °C 11.4 °C 1018.2 hPa ESE 3.2 km/h 9.7 km/h 96 % 0 mm
02:28 12.8 °C 12.3 °C 1017.8 hPa East 4.8 km/h 11.3 km/h 97 % 0 mm
02:46 12.9 °C 12.4 °C 1017.2 hPa Calm   14.5 km/h 97 % 0 mm
02:53 12.9 °C 12.4 °C 1017.2 hPa Calm   14.5 km/h 97 % 0 mm
02:59 12.9 °C 12.4 °C 1016.8 hPa ENE 6.4 km/h 8 km/h 97 % 0 mm
03:13 12.9 °C 12.4 °C 1016.5 hPa ESE 4.8 km/h 16.1 km/h 97 % 0 mm
03:18 13 °C 12.5 °C 1016.5 hPa East 3.2 km/h 16.1 km/h 97 % 0 mm
03:24 13 °C 12.7 °C 1016.1 hPa SE 1.6 km/h 12.9 km/h 98 % 0 mm
03:36 13.1 °C 12.7 °C 1016.1 hPa East 3.2 km/h 11.3 km/h 98 % 0 mm
03:43 13.2 °C 12.8 °C 1015.8 hPa NNE 3.2 km/h 12.9 km/h 98 % 0 mm
03:51 13.4 °C 13.1 °C 1015.5 hPa East 1.6 km/h 14.5 km/h 98 % 0 mm
04:03 13.8 °C 13.4 °C 1015.5 hPa East 1.6 km/h 12.9 km/h 98 % 0 mm
04:15 14.1 °C 13.7 °C 1015.1 hPa SE 1.6 km/h 9.7 km/h 98 % 0 mm
04:21 14.2 °C 13.9 °C 1014.8 hPa East 4.8 km/h 11.3 km/h 98 % 0 mm
04:26 14.3 °C 14 °C 1014.8 hPa SE 11.3 km/h 14.5 km/h 98 % 0 mm
04:37 14.5 °C 14.2 °C 1014.4 hPa ESE 1.6 km/h 17.7 km/h 98 % 0 mm
04:43 14.5 °C 14.2 °C 1014.4 hPa East 1.6 km/h 17.7 km/h 98 % 0 mm
04:52 14.6 °C 14.3 °C 1014.4 hPa East 1.6 km/h 17.7 km/h 98 % 0.25 mm
04:59 14.7 °C 14.3 °C 1014.1 hPa NNE 6.4 km/h 14.5 km/h 98 % 0.76 mm
05:06 14.7 °C 14.3 °C 1014.1 hPa SSE 1.6 km/h 14.5 km/h 98 % 1.02 mm
05:12 14.6 °C 14.3 °C 1014.1 hPa South 1.6 km/h 12.9 km/h 98 % 1.02 mm
05:21 14.6 °C 14.2 °C 1014.1 hPa Calm   16.1 km/h 98 % 1.27 mm
05:27 14.6 °C 14.2 °C 1014.1 hPa ENE 1.6 km/h 16.1 km/h 98 % 1.27 mm
05:42 14.6 °C 14.3 °C 1014.1 hPa NNE 3.2 km/h 20.9 km/h 98 % 1.52 mm
05:52 14.6 °C 14.2 °C 1013.8 hPa East 3.2 km/h 20.9 km/h 98 % 1.27 mm
06:09 14.3 °C 14 °C 1013.8 hPa ESE 3.2 km/h 12.9 km/h 98 % 0.76 mm
06:23 14.3 °C 14 °C 1013.4 hPa ESE 1.6 km/h 16.1 km/h 98 % 0.76 mm
06:28 14.3 °C 14 °C 1013.4 hPa East 4.8 km/h 16.1 km/h 98 % 1.02 mm
06:35 14.3 °C 13.9 °C 1013.4 hPa Calm   12.9 km/h 98 % 1.02 mm
06:48 14.2 °C 13.9 °C 1013.4 hPa East 1.6 km/h 9.7 km/h 98 % 1.02 mm
06:54 14.1 °C 13.8 °C 1013.4 hPa Calm   9.7 km/h 98 % 0.76 mm
07:05 13.9 °C 13.6 °C 1013.4 hPa SSE 3.2 km/h 8 km/h 98 % 1.27 mm
07:10 13.9 °C 13.6 °C 1013.4 hPa Calm   8 km/h 98 % 1.52 mm
07:25 14 °C 13.7 °C 1013.1 hPa ENE 3.2 km/h 12.9 km/h 98 % 2.79 mm
07:31 14.2 °C 13.8 °C 1013.1 hPa ESE 6.4 km/h 12.9 km/h 98 % 2.79 mm
07:56 14.6 °C 14.4 °C 1012.8 hPa ENE 4.8 km/h 16.1 km/h 99 % 3.05 mm
08:07 14.5 °C 14.2 °C 1012.8 hPa East 3.2 km/h 14.5 km/h 98 % 2.54 mm
08:12 14.3 °C 13.9 °C 1012.8 hPa East 4.8 km/h 14.5 km/h 98 % 2.29 mm
08:49 13.7 °C 13.4 °C 1012.4 hPa Calm   8 km/h 98 % 0 mm
09:02 13.9 °C 13.6 °C 1012.4 hPa East 1.6 km/h 8 km/h 98 % 0 mm
09:11 14.2 °C 14 °C 1012.1 hPa Calm   9.7 km/h 99 % 0 mm
09:22 14.4 °C 14.2 °C 1012.4 hPa ENE 3.2 km/h 6.4 km/h 99 % 0 mm
09:27 14.4 °C 14.3 °C 1012.4 hPa Calm   11.3 km/h 99 % 0 mm
09:53 14.2 °C 13.9 °C 1012.1 hPa East 3.2 km/h 9.7 km/h 98 % 0 mm
10:18 14 °C 13.7 °C 1012.1 hPa Calm   9.7 km/h 98 % 0 mm
10:26 14.1 °C 13.9 °C 1012.1 hPa East 1.6 km/h 4.8 km/h 99 % 0.25 mm
10:39 14.1 °C 13.9 °C 1012.1 hPa Calm   8 km/h 99 % 0.76 mm
10:50 14.2 °C 14 °C 1011.4 hPa ESE 1.6 km/h 4.8 km/h 99 % 1.02 mm
10:55 14.2 °C 14.1 °C 1011.4 hPa SE 3.2 km/h 8 km/h 99 % 1.27 mm
11:07 14.2 °C 14.1 °C 1011.4 hPa Calm   8 km/h 99 % 1.52 mm
11:13 14.2 °C 14 °C 1011.1 hPa Calm   8 km/h 99 % 1.78 mm
11:34 14.5 °C 14.3 °C 1010.7 hPa Calm   8 km/h 99 % 1.78 mm
11:49 14.7 °C 14.6 °C 1010 hPa Calm   6.4 km/h 99 % 1.52 mm
11:57 14.8 °C 14.7 °C 1010 hPa Calm   4.8 km/h 99 % 1.27 mm
12:16 14.9 °C 14.8 °C 1009.4 hPa Calm   3.2 km/h 99 % 0.51 mm
12:27 14.9 °C 14.7 °C 1009.4 hPa Calm   4.8 km/h 99 % 0.25 mm
12:44 15.1 °C 14.9 °C 1009 hPa Calm   9.7 km/h 99 % 0 mm
12:50 15.2 °C 15.1 °C 1008.7 hPa Calm   9.7 km/h 99 % 0 mm
12:55 15.3 °C 15.2 °C 1008.7 hPa ESE 1.6 km/h 8 km/h 99 % 0 mm
13:14 15.4 °C 15.2 °C 1008.4 hPa ENE 1.6 km/h 6.4 km/h 99 % 0 mm
13:24 15.4 °C 15.3 °C 1008 hPa ESE 3.2 km/h 8 km/h 99 % 0 mm
13:48 15.7 °C 15.6 °C 1007.7 hPa Calm   6.4 km/h 99 % 0 mm
13:55 15.8 °C 15.7 °C 1007.3 hPa Calm   6.4 km/h 99 % 0 mm
14:08 15.9 °C 15.8 °C 1007.3 hPa East 3.2 km/h 8 km/h 99 % 0 mm
14:14 16 °C 15.8 °C 1007 hPa Calm   8 km/h 99 % 0 mm
14:47 15.8 °C 15.7 °C 1006.7 hPa East 4.8 km/h 16.1 km/h 99 % 0 mm
14:53 15.8 °C 15.7 °C 1006.7 hPa East 1.6 km/h 16.1 km/h 99 % 0 mm
15:09 15.5 °C 15.2 °C 1006.7 hPa Calm   9.7 km/h 98 % 0 mm
15:37 14.6 °C 14.3 °C 1007 hPa Calm   12.9 km/h 98 % 0 mm
15:45 14.6 °C 14.2 °C 1006.7 hPa ESE 1.6 km/h 8 km/h 98 % 0 mm
15:52 14.5 °C 14.2 °C 1006.3 hPa Calm   6.4 km/h 98 % 0 mm
16:01 14.6 °C 14.2 °C 1006.3 hPa Calm   8 km/h 98 % 0 mm
16:07 14.4 °C 14.1 °C 1006.3 hPa East 1.6 km/h 8 km/h 98 % 0 mm
16:14 14.4 °C 14.1 °C 1006.3 hPa East 1.6 km/h 8 km/h 98 % 0 mm
16:39 14.6 °C 14.4 °C 1006 hPa SE 1.6 km/h 8 km/h 99 % 0 mm
16:54 14.6 °C 14.4 °C 1005.6 hPa Calm   8 km/h 99 % 0 mm
17:00 14.7 °C 14.5 °C 1005.6 hPa ESE 3.2 km/h 8 km/h 99 % 0 mm
17:22 14.7 °C 14.5 °C 1005.6 hPa East 3.2 km/h 11.3 km/h 99 % 0.25 mm
17:44 14.2 °C 13.8 °C 1005.3 hPa East 4.8 km/h 8 km/h 98 % 0.51 mm
17:59 14.2 °C 14.1 °C 1005 hPa East 3.2 km/h 14.5 km/h 99 % 0.76 mm
18:06 14.4 °C 14.2 °C 1005 hPa Calm   14.5 km/h 99 % 0.76 mm
18:15 14.4 °C 14.3 °C 1004.6 hPa East 1.6 km/h 12.9 km/h 99 % 0.76 mm
18:21 14.4 °C 14.2 °C 1004.3 hPa East 4.8 km/h 11.3 km/h 99 % 0.76 mm
18:37 14.2 °C 14.1 °C 1004.3 hPa Calm   11.3 km/h 99 % 0.76 mm
18:50 14.3 °C 14.2 °C 1003.9 hPa East 3.2 km/h 12.9 km/h 99 % 1.52 mm
19:21 14.6 °C 14.4 °C 1003.6 hPa Calm   12.9 km/h 99 % 2.03 mm
19:33 14.6 °C 14.4 °C 1003.3 hPa East 8 km/h 8 km/h 99 % 2.03 mm
19:41 14.8 °C 14.6 °C 1002.9 hPa ENE 4.8 km/h 8 km/h 99 % 1.78 mm
20:05 15.2 °C 15 °C 1002.6 hPa Calm   8 km/h 99 % 0 mm
20:10 15.2 °C 15.1 °C 1002.6 hPa Calm   8 km/h 99 % 0 mm
20:29 15.3 °C 15.1 °C 1002.3 hPa East 1.6 km/h 8 km/h 99 % 0 mm
20:42 15.3 °C 15.1 °C 1001.9 hPa Calm   8 km/h 99 % 0.25 mm
20:50 15.3 °C 15.1 °C 1001.9 hPa SE 1.6 km/h 8 km/h 99 % 0.25 mm
20:56 15.4 °C 15.2 °C 1002.3 hPa ESE 1.6 km/h 6.4 km/h 99 % 0.25 mm
21:24 15.4 °C 15.2 °C 1001.9 hPa ESE 3.2 km/h 4.8 km/h 99 % 0.25 mm
21:30 15.4 °C 15.3 °C 1001.6 hPa Calm   4.8 km/h 99 % 0.25 mm
21:38 15.4 °C 15.2 °C 1001.6 hPa Calm   8 km/h 99 % 0 mm
21:51 15.4 °C 15.2 °C 1000.6 hPa East 1.6 km/h 14.5 km/h 99 % 0 mm
21:56 15.3 °C 15.1 °C 1000.6 hPa ESE 1.6 km/h 14.5 km/h 99 % 0 mm
22:02 15.2 °C 15.1 °C 1000.9 hPa Calm   14.5 km/h 99 % 0 mm
22:07 15.1 °C 14.9 °C 1000.6 hPa ESE 1.6 km/h 9.7 km/h 99 % 0 mm
22:37 14.2 °C 14 °C 999.9 hPa East 9.7 km/h 9.7 km/h 99 % 0 mm
22:48 13.7 °C 13.3 °C 999.5 hPa ESE 1.6 km/h 11.3 km/h 98 % 0 mm
22:53 13.6 °C 13.2 °C 999.5 hPa Calm   11.3 km/h 98 % 0 mm
23:01 13.4 °C 13.2 °C 999.9 hPa Calm   4.8 km/h 99 % 0 mm
23:13 13.4 °C 13.2 °C 999.5 hPa Calm   4.8 km/h 99 % 0 mm
23:25 13.4 °C 13.2 °C 999.2 hPa ESE 3.2 km/h 8 km/h 99 % 0.25 mm
23:33 13.7 °C 13.5 °C 998.9 hPa Calm   8 km/h 99 % 0.25 mm
23:40 13.8 °C 13.7 °C 998.5 hPa ESE 3.2 km/h 8 km/h 99 % 0.25 mm
23:55 13.7 °C 13.5 °C 998.5 hPa ESE 1.6 km/h 11.3 km/h 99 % 0.51 mm
MarylandWx.com
Compliments of Weather Underground - 5.5 mb